sim
Sign-in with your pilot id or email,
or register
Callsign
Passwort

Schedule Details

Flight Number: OEO7259
Departure: Fuerteventura Airport (GCFV) at 15:40
Arrival: Munich Airport (EDDM) at 20:15

Weather Information
Getting current METAR information for GCFV 260630Z 04018KT 9999 FEW015 24/21 Q1020
Getting current METAR information for EDDM 260650Z 27012KT 9999 -RADZ FEW012 SCT016 BKN030 07/05 Q0999 BECMG 27015G25KT

Schedule Frequency

Route Map